sensor_id;sensor_type;location;lat;lon;timestamp;P1;durP1;ratioP1;P2;durP2;ratioP2
18140;SDS011;9196;49.194;12.526;2022-11-15T00:01:32;40.53;;;23.17;;
18140;SDS011;9196;49.194;12.526;2022-11-15T00:03:59;30.77;;;21.10;;
18140;SDS011;9196;49.194;12.526;2022-11-15T00:06:26;33.58;;;20.75;;
18140;SDS011;9196;49.194;12.526;2022-11-15T00:08:53;38.55;;;23.10;;
18140;SDS011;9196;49.194;12.526;2022-11-15T00:11:20;43.83;;;23.38;;
18140;SDS011;9196;49.194;12.526;2022-11-15T00:13:46;41.88;;;23.98;;
18140;SDS011;9196;49.194;12.526;2022-11-15T00:16:13;36.03;;;19.13;;
18140;SDS011;9196;49.194;12.526;2022-11-15T00:18:42;24.60;;;17.65;;
18140;SDS011;9196;49.194;12.526;2022-11-15T00:21:09;27.33;;;17.60;;
18140;SDS011;9196;49.194;12.526;2022-11-15T00:23:38;25.52;;;17.42;;
18140;SDS011;9196;49.194;12.526;2022-11-15T00:26:05;21.60;;;15.45;;
18140;SDS011;9196;49.194;12.526;2022-11-15T00:28:32;18.33;;;14.63;;
18140;SDS011;9196;49.194;12.526;2022-11-15T00:30:59;20.25;;;16.05;;
18140;SDS011;9196;49.194;12.526;2022-11-15T00:33:27;20.45;;;15.20;;
18140;SDS011;9196;49.194;12.526;2022-11-15T00:35:55;19.50;;;13.75;;
18140;SDS011;9196;49.194;12.526;2022-11-15T00:38:25;20.20;;;14.60;;
18140;SDS011;9196;49.194;12.526;2022-11-15T00:40:57;31.58;;;17.02;;
18140;SDS011;9196;49.194;12.526;2022-11-15T00:43:23;29.75;;;18.63;;
18140;SDS011;9196;49.194;12.526;2022-11-15T00:45:50;21.13;;;15.57;;
18140;SDS011;9196;49.194;12.526;2022-11-15T00:48:17;29.75;;;15.02;;
18140;SDS011;9196;49.194;12.526;2022-11-15T00:50:44;31.17;;;18.05;;
18140;SDS011;9196;49.194;12.526;2022-11-15T00:53:12;20.88;;;16.00;;
18140;SDS011;9196;49.194;12.526;2022-11-15T00:55:39;20.58;;;15.32;;
18140;SDS011;9196;49.194;12.526;2022-11-15T00:58:06;25.80;;;17.08;;
18140;SDS011;9196;49.194;12.526;2022-11-15T01:00:33;28.55;;;17.75;;
18140;SDS011;9196;49.194;12.526;2022-11-15T01:02:59;39.33;;;19.48;;
18140;SDS011;9196;49.194;12.526;2022-11-15T01:05:27;32.40;;;20.55;;
18140;SDS011;9196;49.194;12.526;2022-11-15T01:07:54;31.67;;;21.13;;
18140;SDS011;9196;49.194;12.526;2022-11-15T01:10:23;28.83;;;19.50;;
18140;SDS011;9196;49.194;12.526;2022-11-15T01:12:51;29.35;;;20.25;;
18140;SDS011;9196;49.194;12.526;2022-11-15T01:15:17;29.52;;;20.13;;
18140;SDS011;9196;49.194;12.526;2022-11-15T01:17:44;24.92;;;18.77;;
18140;SDS011;9196;49.194;12.526;2022-11-15T01:20:11;32.75;;;22.23;;
18140;SDS011;9196;49.194;12.526;2022-11-15T01:22:38;28.50;;;21.33;;
18140;SDS011;9196;49.194;12.526;2022-11-15T01:25:05;32.60;;;20.90;;
18140;SDS011;9196;49.194;12.526;2022-11-15T01:27:33;32.95;;;18.92;;
18140;SDS011;9196;49.194;12.526;2022-11-15T01:30:00;27.50;;;20.48;;
18140;SDS011;9196;49.194;12.526;2022-11-15T01:32:27;28.73;;;18.05;;
18140;SDS011;9196;49.194;12.526;2022-11-15T01:34:54;26.38;;;17.75;;
18140;SDS011;9196;49.194;12.526;2022-11-15T01:37:21;25.35;;;18.20;;
18140;SDS011;9196;49.194;12.526;2022-11-15T01:39:48;23.60;;;18.42;;
18140;SDS011;9196;49.194;12.526;2022-11-15T01:42:14;22.27;;;17.58;;
18140;SDS011;9196;49.194;12.526;2022-11-15T01:44:44;26.85;;;17.60;;
18140;SDS011;9196;49.194;12.526;2022-11-15T01:47:14;27.92;;;17.50;;
18140;SDS011;9196;49.194;12.526;2022-11-15T01:49:45;24.05;;;17.92;;
18140;SDS011;9196;49.194;12.526;2022-11-15T01:52:20;22.95;;;17.92;;
18140;SDS011;9196;49.194;12.526;2022-11-15T01:54:50;22.90;;;16.98;;
18140;SDS011;9196;49.194;12.526;2022-11-15T01:57:20;22.40;;;17.27;;
18140;SDS011;9196;49.194;12.526;2022-11-15T01:59:48;26.23;;;18.88;;
18140;SDS011;9196;49.194;12.526;2022-11-15T02:02:15;29.50;;;18.50;;
18140;SDS011;9196;49.194;12.526;2022-11-15T02:04:43;24.67;;;18.05;;
18140;SDS011;9196;49.194;12.526;2022-11-15T02:07:11;21.83;;;18.02;;
18140;SDS011;9196;49.194;12.526;2022-11-15T02:09:41;21.88;;;16.73;;
18140;SDS011;9196;49.194;12.526;2022-11-15T02:12:09;23.92;;;17.35;;
18140;SDS011;9196;49.194;12.526;2022-11-15T02:14:38;39.70;;;18.13;;
18140;SDS011;9196;49.194;12.526;2022-11-15T02:17:13;23.52;;;16.58;;
18140;SDS011;9196;49.194;12.526;2022-11-15T02:23:15;21.95;;;16.40;;
18140;SDS011;9196;49.194;12.526;2022-11-15T02:26:06;24.80;;;17.75;;
18140;SDS011;9196;49.194;12.526;2022-11-15T02:28:53;23.30;;;17.25;;
18140;SDS011;9196;49.194;12.526;2022-11-15T02:31:29;20.25;;;16.35;;
18140;SDS011;9196;49.194;12.526;2022-11-15T02:34:04;31.85;;;16.90;;
18140;SDS011;9196;49.194;12.526;2022-11-15T02:36:40;22.50;;;16.55;;
18140;SDS011;9196;49.194;12.526;2022-11-15T02:39:10;20.48;;;16.98;;
18140;SDS011;9196;49.194;12.526;2022-11-15T02:41:47;23.83;;;17.60;;
18140;SDS011;9196;49.194;12.526;2022-11-15T02:44:19;21.67;;;16.67;;
18140;SDS011;9196;49.194;12.526;2022-11-15T02:46:51;17.52;;;15.23;;
18140;SDS011;9196;49.194;12.526;2022-11-15T02:49:39;23.80;;;16.25;;
18140;SDS011;9196;49.194;12.526;2022-11-15T02:52:08;22.77;;;17.80;;
18140;SDS011;9196;49.194;12.526;2022-11-15T02:54:35;25.27;;;17.20;;
18140;SDS011;9196;49.194;12.526;2022-11-15T02:57:02;20.45;;;16.80;;
18140;SDS011;9196;49.194;12.526;2022-11-15T02:59:42;17.15;;;13.88;;
18140;SDS011;9196;49.194;12.526;2022-11-15T03:02:24;16.77;;;14.00;;
18140;SDS011;9196;49.194;12.526;2022-11-15T03:05:04;20.83;;;13.85;;
18140;SDS011;9196;49.194;12.526;2022-11-15T03:07:43;21.90;;;14.85;;
18140;SDS011;9196;49.194;12.526;2022-11-15T03:10:17;18.20;;;14.80;;
18140;SDS011;9196;49.194;12.526;2022-11-15T03:12:49;21.75;;;13.43;;
18140;SDS011;9196;49.194;12.526;2022-11-15T03:15:21;14.68;;;13.18;;
18140;SDS011;9196;49.194;12.526;2022-11-15T03:17:56;19.45;;;12.88;;
18140;SDS011;9196;49.194;12.526;2022-11-15T03:20:26;24.42;;;15.20;;
18140;SDS011;9196;49.194;12.526;2022-11-15T03:22:55;62.78;;;15.07;;
18140;SDS011;9196;49.194;12.526;2022-11-15T03:25:27;15.88;;;14.13;;
18140;SDS011;9196;49.194;12.526;2022-11-15T03:27:56;18.48;;;12.93;;
18140;SDS011;9196;49.194;12.526;2022-11-15T03:30:28;33.92;;;11.55;;
18140;SDS011;9196;49.194;12.526;2022-11-15T03:32:58;13.07;;;11.68;;
18140;SDS011;9196;49.194;12.526;2022-11-15T03:35:27;58.95;;;12.27;;
18140;SDS011;9196;49.194;12.526;2022-11-15T03:37:57;51.92;;;12.20;;
18140;SDS011;9196;49.194;12.526;2022-11-15T03:40:33;56.78;;;12.82;;
18140;SDS011;9196;49.194;12.526;2022-11-15T03:43:05;17.30;;;12.38;;
18140;SDS011;9196;49.194;12.526;2022-11-15T03:45:38;18.10;;;10.23;;
18140;SDS011;9196;49.194;12.526;2022-11-15T03:48:10;11.93;;;10.73;;
18140;SDS011;9196;49.194;12.526;2022-11-15T03:50:40;21.42;;;11.27;;
18140;SDS011;9196;49.194;12.526;2022-11-15T03:53:08;12.68;;;10.38;;
18140;SDS011;9196;49.194;12.526;2022-11-15T03:55:36;11.93;;;10.55;;
18140;SDS011;9196;49.194;12.526;2022-11-15T03:58:02;13.15;;;11.85;;
18140;SDS011;9196;49.194;12.526;2022-11-15T04:00:29;12.48;;;11.18;;
18140;SDS011;9196;49.194;12.526;2022-11-15T04:02:56;10.82;;;9.73;;
18140;SDS011;9196;49.194;12.526;2022-11-15T04:05:24;12.30;;;10.50;;
18140;SDS011;9196;49.194;12.526;2022-11-15T04:07:51;11.95;;;10.35;;
18140;SDS011;9196;49.194;12.526;2022-11-15T04:10:18;11.70;;;10.60;;
18140;SDS011;9196;49.194;12.526;2022-11-15T04:12:45;14.30;;;10.95;;
18140;SDS011;9196;49.194;12.526;2022-11-15T04:15:13;11.50;;;10.43;;
18140;SDS011;9196;49.194;12.526;2022-11-15T04:17:42;17.80;;;11.38;;
18140;SDS011;9196;49.194;12.526;2022-11-15T04:20:11;13.75;;;11.90;;
18140;SDS011;9196;49.194;12.526;2022-11-15T04:22:59;14.45;;;11.30;;
18140;SDS011;9196;49.194;12.526;2022-11-15T04:25:45;14.40;;;11.38;;
18140;SDS011;9196;49.194;12.526;2022-11-15T04:28:13;11.90;;;10.70;;
18140;SDS011;9196;49.194;12.526;2022-11-15T04:30:40;12.05;;;10.85;;
18140;SDS011;9196;49.194;12.526;2022-11-15T04:33:07;12.80;;;11.50;;
18140;SDS011;9196;49.194;12.526;2022-11-15T04:35:34;11.85;;;10.75;;
18140;SDS011;9196;49.194;12.526;2022-11-15T04:38:02;13.98;;;11.98;;
18140;SDS011;9196;49.194;12.526;2022-11-15T04:40:29;13.18;;;10.70;;
18140;SDS011;9196;49.194;12.526;2022-11-15T04:42:56;13.20;;;11.90;;
18140;SDS011;9196;49.194;12.526;2022-11-15T04:45:23;12.20;;;10.95;;
18140;SDS011;9196;49.194;12.526;2022-11-15T04:47:50;11.80;;;10.65;;
18140;SDS011;9196;49.194;12.526;2022-11-15T04:50:16;20.08;;;13.50;;
18140;SDS011;9196;49.194;12.526;2022-11-15T04:52:48;26.40;;;17.92;;
18140;SDS011;9196;49.194;12.526;2022-11-15T04:55:18;22.08;;;17.98;;
18140;SDS011;9196;49.194;12.526;2022-11-15T04:57:45;17.70;;;15.43;;
18140;SDS011;9196;49.194;12.526;2022-11-15T05:00:12;17.90;;;13.85;;
18140;SDS011;9196;49.194;12.526;2022-11-15T05:02:41;16.88;;;14.20;;
18140;SDS011;9196;49.194;12.526;2022-11-15T05:05:25;14.88;;;12.55;;
18140;SDS011;9196;49.194;12.526;2022-11-15T05:07:52;14.88;;;13.13;;
18140;SDS011;9196;49.194;12.526;2022-11-15T05:10:20;42.35;;;24.17;;
18140;SDS011;9196;49.194;12.526;2022-11-15T05:12:47;17.77;;;14.35;;
18140;SDS011;9196;49.194;12.526;2022-11-15T05:15:14;26.15;;;18.95;;
18140;SDS011;9196;49.194;12.526;2022-11-15T05:17:41;22.58;;;17.65;;
18140;SDS011;9196;49.194;12.526;2022-11-15T05:20:08;20.70;;;16.20;;
18140;SDS011;9196;49.194;12.526;2022-11-15T05:22:36;23.55;;;17.48;;
18140;SDS011;9196;49.194;12.526;2022-11-15T05:25:03;21.48;;;16.90;;
18140;SDS011;9196;49.194;12.526;2022-11-15T05:27:32;24.02;;;16.70;;
18140;SDS011;9196;49.194;12.526;2022-11-15T05:29:59;21.85;;;16.50;;
18140;SDS011;9196;49.194;12.526;2022-11-15T05:32:26;19.10;;;14.73;;
18140;SDS011;9196;49.194;12.526;2022-11-15T05:34:54;14.93;;;13.30;;
18140;SDS011;9196;49.194;12.526;2022-11-15T05:37:21;13.93;;;12.52;;
18140;SDS011;9196;49.194;12.526;2022-11-15T05:39:47;17.75;;;12.43;;
18140;SDS011;9196;49.194;12.526;2022-11-15T05:42:15;17.13;;;14.63;;
18140;SDS011;9196;49.194;12.526;2022-11-15T05:44:44;27.05;;;14.48;;
18140;SDS011;9196;49.194;12.526;2022-11-15T05:47:15;18.23;;;15.40;;
18140;SDS011;9196;49.194;12.526;2022-11-15T05:49:46;19.40;;;14.43;;
18140;SDS011;9196;49.194;12.526;2022-11-15T05:52:14;21.70;;;18.25;;
18140;SDS011;9196;49.194;12.526;2022-11-15T05:54:44;17.80;;;15.73;;
18140;SDS011;9196;49.194;12.526;2022-11-15T05:57:11;21.58;;;13.85;;
18140;SDS011;9196;49.194;12.526;2022-11-15T05:59:38;22.08;;;13.70;;
18140;SDS011;9196;49.194;12.526;2022-11-15T06:02:07;15.90;;;13.85;;
18140;SDS011;9196;49.194;12.526;2022-11-15T06:04:34;16.25;;;14.55;;
18140;SDS011;9196;49.194;12.526;2022-11-15T06:07:01;14.32;;;12.82;;
18140;SDS011;9196;49.194;12.526;2022-11-15T06:09:27;14.68;;;13.18;;
18140;SDS011;9196;49.194;12.526;2022-11-15T06:11:54;24.25;;;18.65;;
18140;SDS011;9196;49.194;12.526;2022-11-15T06:14:21;22.20;;;15.85;;
18140;SDS011;9196;49.194;12.526;2022-11-15T06:16:48;21.75;;;16.23;;
18140;SDS011;9196;49.194;12.526;2022-11-15T06:19:17;17.55;;;14.15;;
18140;SDS011;9196;49.194;12.526;2022-11-15T06:21:44;14.82;;;13.32;;
18140;SDS011;9196;49.194;12.526;2022-11-15T06:24:11;13.77;;;12.00;;
18140;SDS011;9196;49.194;12.526;2022-11-15T06:26:38;14.35;;;12.85;;
18140;SDS011;9196;49.194;12.526;2022-11-15T06:29:04;34.08;;;13.23;;
18140;SDS011;9196;49.194;12.526;2022-11-15T06:31:32;14.00;;;12.60;;
18140;SDS011;9196;49.194;12.526;2022-11-15T06:33:59;15.07;;;13.10;;
18140;SDS011;9196;49.194;12.526;2022-11-15T06:36:28;14.60;;;12.90;;
18140;SDS011;9196;49.194;12.526;2022-11-15T06:38:54;35.33;;;12.20;;
18140;SDS011;9196;49.194;12.526;2022-11-15T06:41:23;36.63;;;13.88;;
18140;SDS011;9196;49.194;12.526;2022-11-15T06:43:53;15.95;;;12.35;;
18140;SDS011;9196;49.194;12.526;2022-11-15T06:46:19;15.85;;;12.00;;
18140;SDS011;9196;49.194;12.526;2022-11-15T06:48:46;17.60;;;13.65;;
18140;SDS011;9196;49.194;12.526;2022-11-15T06:51:14;16.63;;;14.00;;
18140;SDS011;9196;49.194;12.526;2022-11-15T06:53:42;15.50;;;12.85;;
18140;SDS011;9196;49.194;12.526;2022-11-15T06:56:09;18.98;;;13.10;;
18140;SDS011;9196;49.194;12.526;2022-11-15T06:58:36;16.10;;;11.98;;
18140;SDS011;9196;49.194;12.526;2022-11-15T07:01:04;13.85;;;12.32;;
18140;SDS011;9196;49.194;12.526;2022-11-15T07:03:33;15.50;;;11.90;;
18140;SDS011;9196;49.194;12.526;2022-11-15T07:06:01;53.00;;;15.13;;
18140;SDS011;9196;49.194;12.526;2022-11-15T07:08:29;18.35;;;14.00;;
18140;SDS011;9196;49.194;12.526;2022-11-15T07:10:58;27.40;;;13.18;;
18140;SDS011;9196;49.194;12.526;2022-11-15T07:13:27;16.13;;;13.90;;
18140;SDS011;9196;49.194;12.526;2022-11-15T07:15:55;14.75;;;11.98;;
18140;SDS011;9196;49.194;12.526;2022-11-15T07:18:22;17.40;;;13.15;;
18140;SDS011;9196;49.194;12.526;2022-11-15T07:20:48;15.23;;;13.63;;
18140;SDS011;9196;49.194;12.526;2022-11-15T07:23:15;17.08;;;12.90;;
18140;SDS011;9196;49.194;12.526;2022-11-15T07:25:42;17.48;;;14.82;;
18140;SDS011;9196;49.194;12.526;2022-11-15T07:28:10;19.25;;;15.57;;
18140;SDS011;9196;49.194;12.526;2022-11-15T07:30:37;15.90;;;14.10;;
18140;SDS011;9196;49.194;12.526;2022-11-15T07:33:04;18.67;;;15.38;;
18140;SDS011;9196;49.194;12.526;2022-11-15T07:35:31;17.75;;;14.70;;
18140;SDS011;9196;49.194;12.526;2022-11-15T07:37:58;17.25;;;14.52;;
18140;SDS011;9196;49.194;12.526;2022-11-15T07:40:27;17.10;;;13.93;;
18140;SDS011;9196;49.194;12.526;2022-11-15T07:42:58;15.88;;;14.02;;
18140;SDS011;9196;49.194;12.526;2022-11-15T07:45:27;16.70;;;14.35;;
18140;SDS011;9196;49.194;12.526;2022-11-15T07:47:54;15.77;;;14.18;;
18140;SDS011;9196;49.194;12.526;2022-11-15T07:50:22;18.15;;;14.38;;
18140;SDS011;9196;49.194;12.526;2022-11-15T07:52:52;15.23;;;13.63;;
18140;SDS011;9196;49.194;12.526;2022-11-15T07:55:20;18.67;;;14.85;;
18140;SDS011;9196;49.194;12.526;2022-11-15T07:57:48;15.23;;;13.40;;
18140;SDS011;9196;49.194;12.526;2022-11-15T08:00:15;13.38;;;11.98;;
18140;SDS011;9196;49.194;12.526;2022-11-15T08:02:44;16.60;;;13.63;;
18140;SDS011;9196;49.194;12.526;2022-11-15T08:05:11;17.20;;;13.57;;
18140;SDS011;9196;49.194;12.526;2022-11-15T08:07:38;16.83;;;13.40;;
18140;SDS011;9196;49.194;12.526;2022-11-15T08:10:05;15.43;;;12.90;;
18140;SDS011;9196;49.194;12.526;2022-11-15T08:12:33;17.15;;;13.23;;
18140;SDS011;9196;49.194;12.526;2022-11-15T08:15:00;17.40;;;13.43;;
18140;SDS011;9196;49.194;12.526;2022-11-15T08:17:27;15.40;;;12.93;;
18140;SDS011;9196;49.194;12.526;2022-11-15T08:19:58;14.32;;;12.80;;
18140;SDS011;9196;49.194;12.526;2022-11-15T08:22:25;14.82;;;11.98;;
18140;SDS011;9196;49.194;12.526;2022-11-15T08:24:52;16.63;;;12.25;;
18140;SDS011;9196;49.194;12.526;2022-11-15T08:27:19;13.45;;;12.02;;
18140;SDS011;9196;49.194;12.526;2022-11-15T08:29:47;15.77;;;12.52;;
18140;SDS011;9196;49.194;12.526;2022-11-15T08:32:14;15.80;;;11.35;;
18140;SDS011;9196;49.194;12.526;2022-11-15T08:34:42;17.80;;;12.85;;
18140;SDS011;9196;49.194;12.526;2022-11-15T08:37:11;15.27;;;13.00;;
18140;SDS011;9196;49.194;12.526;2022-11-15T08:39:37;13.88;;;10.98;;
18140;SDS011;9196;49.194;12.526;2022-11-15T08:42:04;16.38;;;12.65;;
18140;SDS011;9196;49.194;12.526;2022-11-15T08:44:31;17.05;;;13.15;;
18140;SDS011;9196;49.194;12.526;2022-11-15T08:46:58;19.83;;;14.70;;
18140;SDS011;9196;49.194;12.526;2022-11-15T08:49:25;49.83;;;23.20;;
18140;SDS011;9196;49.194;12.526;2022-11-15T08:51:51;17.77;;;12.98;;
18140;SDS011;9196;49.194;12.526;2022-11-15T08:54:20;18.75;;;14.65;;
18140;SDS011;9196;49.194;12.526;2022-11-15T08:56:46;23.88;;;15.73;;
18140;SDS011;9196;49.194;12.526;2022-11-15T08:59:13;16.80;;;13.73;;
18140;SDS011;9196;49.194;12.526;2022-11-15T09:01:40;19.25;;;15.75;;
18140;SDS011;9196;49.194;12.526;2022-11-15T09:04:07;19.90;;;14.90;;
18140;SDS011;9196;49.194;12.526;2022-11-15T09:06:33;23.88;;;15.40;;
18140;SDS011;9196;49.194;12.526;2022-11-15T09:09:01;20.65;;;15.70;;
18140;SDS011;9196;49.194;12.526;2022-11-15T09:11:29;26.13;;;16.08;;
18140;SDS011;9196;49.194;12.526;2022-11-15T09:13:56;24.45;;;16.23;;
18140;SDS011;9196;49.194;12.526;2022-11-15T09:16:23;17.90;;;15.25;;
18140;SDS011;9196;49.194;12.526;2022-11-15T09:18:50;25.42;;;18.38;;
18140;SDS011;9196;49.194;12.526;2022-11-15T09:21:17;17.25;;;10.93;;
18140;SDS011;9196;49.194;12.526;2022-11-15T09:23:43;13.27;;;10.70;;
18140;SDS011;9196;49.194;12.526;2022-11-15T09:26:10;15.23;;;12.18;;
18140;SDS011;9196;49.194;12.526;2022-11-15T09:28:38;11.85;;;10.75;;
18140;SDS011;9196;49.194;12.526;2022-11-15T09:31:07;11.38;;;10.00;;
18140;SDS011;9196;49.194;12.526;2022-11-15T09:33:34;10.40;;;9.40;;
18140;SDS011;9196;49.194;12.526;2022-11-15T09:36:01;9.25;;;8.07;;
18140;SDS011;9196;49.194;12.526;2022-11-15T09:38:29;9.00;;;8.10;;
18140;SDS011;9196;49.194;12.526;2022-11-15T09:40:59;9.05;;;7.00;;
18140;SDS011;9196;49.194;12.526;2022-11-15T09:43:47;9.23;;;7.85;;
18140;SDS011;9196;49.194;12.526;2022-11-15T09:46:20;8.70;;;7.28;;
18140;SDS011;9196;49.194;12.526;2022-11-15T09:48:54;8.40;;;7.70;;
18140;SDS011;9196;49.194;12.526;2022-11-15T09:51:27;9.20;;;8.27;;
18140;SDS011;9196;49.194;12.526;2022-11-15T09:53:57;10.55;;;8.60;;
18140;SDS011;9196;49.194;12.526;2022-11-15T09:56:29;8.90;;;7.90;;
18140;SDS011;9196;49.194;12.526;2022-11-15T09:59:01;13.23;;;9.32;;
18140;SDS011;9196;49.194;12.526;2022-11-15T10:01:39;9.32;;;8.43;;
18140;SDS011;9196;49.194;12.526;2022-11-15T10:04:10;8.38;;;7.55;;
18140;SDS011;9196;49.194;12.526;2022-11-15T10:06:38;8.98;;;7.65;;
18140;SDS011;9196;49.194;12.526;2022-11-15T10:09:12;10.15;;;9.10;;
18140;SDS011;9196;49.194;12.526;2022-11-15T10:11:43;10.68;;;8.23;;
18140;SDS011;9196;49.194;12.526;2022-11-15T10:14:12;9.10;;;8.13;;
18140;SDS011;9196;49.194;12.526;2022-11-15T10:16:59;16.90;;;14.10;;
18140;SDS011;9196;49.194;12.526;2022-11-15T10:19:34;16.15;;;12.30;;
18140;SDS011;9196;49.194;12.526;2022-11-15T10:22:11;10.02;;;8.40;;
18140;SDS011;9196;49.194;12.526;2022-11-15T10:24:50;10.57;;;8.55;;
18140;SDS011;9196;49.194;12.526;2022-11-15T10:27:23;7.88;;;7.15;;
18140;SDS011;9196;49.194;12.526;2022-11-15T10:29:52;8.68;;;7.93;;
18140;SDS011;9196;49.194;12.526;2022-11-15T10:32:20;8.82;;;7.93;;
18140;SDS011;9196;49.194;12.526;2022-11-15T10:34:47;9.75;;;8.65;;
18140;SDS011;9196;49.194;12.526;2022-11-15T10:37:16;10.48;;;7.95;;
18140;SDS011;9196;49.194;12.526;2022-11-15T10:40:02;10.27;;;8.93;;
18140;SDS011;9196;49.194;12.526;2022-11-15T10:42:30;9.57;;;7.18;;
18140;SDS011;9196;49.194;12.526;2022-11-15T10:44:58;8.70;;;7.80;;
18140;SDS011;9196;49.194;12.526;2022-11-15T10:47:26;7.95;;;7.15;;
18140;SDS011;9196;49.194;12.526;2022-11-15T10:49:57;7.67;;;6.97;;
18140;SDS011;9196;49.194;12.526;2022-11-15T10:52:25;10.60;;;9.33;;
18140;SDS011;9196;49.194;12.526;2022-11-15T10:54:55;11.15;;;8.40;;
18140;SDS011;9196;49.194;12.526;2022-11-15T10:57:26;10.57;;;7.73;;
18140;SDS011;9196;49.194;12.526;2022-11-15T10:59:55;8.95;;;7.50;;
18140;SDS011;9196;49.194;12.526;2022-11-15T11:02:29;6.70;;;6.17;;
18140;SDS011;9196;49.194;12.526;2022-11-15T11:04:59;7.57;;;6.88;;
18140;SDS011;9196;49.194;12.526;2022-11-15T11:07:27;7.82;;;7.07;;
18140;SDS011;9196;49.194;12.526;2022-11-15T11:09:59;7.33;;;6.67;;
18140;SDS011;9196;49.194;12.526;2022-11-15T11:12:28;7.87;;;6.73;;
18140;SDS011;9196;49.194;12.526;2022-11-15T11:14:57;6.70;;;6.10;;
18140;SDS011;9196;49.194;12.526;2022-11-15T11:17:29;7.00;;;6.33;;
18140;SDS011;9196;49.194;12.526;2022-11-15T11:20:03;5.10;;;4.70;;
18140;SDS011;9196;49.194;12.526;2022-11-15T11:22:38;10.60;;;6.27;;
18140;SDS011;9196;49.194;12.526;2022-11-15T11:25:23;5.10;;;4.70;;
18140;SDS011;9196;49.194;12.526;2022-11-15T11:28:09;5.33;;;4.93;;
18140;SDS011;9196;49.194;12.526;2022-11-15T11:30:49;7.17;;;5.47;;
18140;SDS011;9196;49.194;12.526;2022-11-15T11:33:26;5.70;;;4.70;;
18140;SDS011;9196;49.194;12.526;2022-11-15T11:35:59;6.20;;;4.30;;
18140;SDS011;9196;49.194;12.526;2022-11-15T11:38:37;6.83;;;4.77;;
18140;SDS011;9196;49.194;12.526;2022-11-15T11:41:15;5.77;;;5.37;;
18140;SDS011;9196;49.194;12.526;2022-11-15T11:43:53;6.60;;;5.20;;
18140;SDS011;9196;49.194;12.526;2022-11-15T11:46:32;5.33;;;4.83;;
18140;SDS011;9196;49.194;12.526;2022-11-15T11:49:12;6.33;;;4.60;;
18140;SDS011;9196;49.194;12.526;2022-11-15T11:51:45;4.50;;;4.10;;
18140;SDS011;9196;49.194;12.526;2022-11-15T11:54:18;5.10;;;4.60;;
18140;SDS011;9196;49.194;12.526;2022-11-15T11:56:48;5.17;;;4.67;;
18140;SDS011;9196;49.194;12.526;2022-11-15T11:59:19;7.03;;;5.40;;
18140;SDS011;9196;49.194;12.526;2022-11-15T12:01:51;4.80;;;4.40;;
18140;SDS011;9196;49.194;12.526;2022-11-15T12:04:20;5.03;;;4.60;;
18140;SDS011;9196;49.194;12.526;2022-11-15T12:06:53;5.37;;;4.90;;
18140;SDS011;9196;49.194;12.526;2022-11-15T12:09:26;8.97;;;4.73;;
18140;SDS011;9196;49.194;12.526;2022-11-15T12:11:58;5.27;;;4.77;;
18140;SDS011;9196;49.194;12.526;2022-11-15T12:14:32;8.43;;;6.00;;
18140;SDS011;9196;49.194;12.526;2022-11-15T12:17:04;7.17;;;6.07;;
18140;SDS011;9196;49.194;12.526;2022-11-15T12:19:32;5.83;;;5.30;;
18140;SDS011;9196;49.194;12.526;2022-11-15T12:22:00;6.23;;;5.73;;
18140;SDS011;9196;49.194;12.526;2022-11-15T12:24:32;5.87;;;5.30;;
18140;SDS011;9196;49.194;12.526;2022-11-15T12:27:05;5.43;;;5.03;;
18140;SDS011;9196;49.194;12.526;2022-11-15T12:29:38;6.50;;;5.90;;
18140;SDS011;9196;49.194;12.526;2022-11-15T12:32:13;6.27;;;5.63;;
18140;SDS011;9196;49.194;12.526;2022-11-15T12:34:49;6.77;;;6.17;;
18140;SDS011;9196;49.194;12.526;2022-11-15T12:37:33;5.40;;;5.00;;
18140;SDS011;9196;49.194;12.526;2022-11-15T12:40:26;5.97;;;5.47;;
18140;SDS011;9196;49.194;12.526;2022-11-15T12:43:02;5.60;;;4.43;;
18140;SDS011;9196;49.194;12.526;2022-11-15T12:45:51;5.13;;;4.73;;
18140;SDS011;9196;49.194;12.526;2022-11-15T12:52:02;7.33;;;5.30;;
18140;SDS011;9196;49.194;12.526;2022-11-15T12:54:55;7.40;;;6.40;;
18140;SDS011;9196;49.194;12.526;2022-11-15T12:57:31;6.77;;;6.17;;
18140;SDS011;9196;49.194;12.526;2022-11-15T13:00:00;6.53;;;5.93;;
18140;SDS011;9196;49.194;12.526;2022-11-15T13:02:29;7.27;;;6.27;;
18140;SDS011;9196;49.194;12.526;2022-11-15T13:07:59;7.53;;;6.60;;
18140;SDS011;9196;49.194;12.526;2022-11-15T13:10:32;7.00;;;5.90;;
18140;SDS011;9196;49.194;12.526;2022-11-15T13:12:59;6.27;;;5.67;;
18140;SDS011;9196;49.194;12.526;2022-11-15T13:18:34;6.50;;;5.80;;
18140;SDS011;9196;49.194;12.526;2022-11-15T13:21:04;8.03;;;7.00;;
18140;SDS011;9196;49.194;12.526;2022-11-15T13:24:02;13.30;;;9.10;;
18140;SDS011;9196;49.194;12.526;2022-11-15T13:26:31;6.70;;;6.10;;
18140;SDS011;9196;49.194;12.526;2022-11-15T13:28:58;6.87;;;6.27;;
18140;SDS011;9196;49.194;12.526;2022-11-15T13:33:58;7.37;;;6.57;;
18140;SDS011;9196;49.194;12.526;2022-11-15T13:36:28;8.27;;;6.00;;
18140;SDS011;9196;49.194;12.526;2022-11-15T13:38:59;8.23;;;6.80;;
18140;SDS011;9196;49.194;12.526;2022-11-15T13:41:29;11.10;;;6.30;;
18140;SDS011;9196;49.194;12.526;2022-11-15T13:43:59;6.90;;;6.30;;
18140;SDS011;9196;49.194;12.526;2022-11-15T13:46:27;8.10;;;7.30;;
18140;SDS011;9196;49.194;12.526;2022-11-15T13:48:56;8.33;;;7.17;;
18140;SDS011;9196;49.194;12.526;2022-11-15T13:51:26;7.87;;;7.13;;
18140;SDS011;9196;49.194;12.526;2022-11-15T13:54:03;8.70;;;7.90;;
18140;SDS011;9196;49.194;12.526;2022-11-15T13:56:41;13.93;;;7.77;;
18140;SDS011;9196;49.194;12.526;2022-11-15T13:59:13;9.07;;;8.00;;
18140;SDS011;9196;49.194;12.526;2022-11-15T14:01:43;8.90;;;8.00;;
18140;SDS011;9196;49.194;12.526;2022-11-15T14:04:11;8.80;;;7.90;;
18140;SDS011;9196;49.194;12.526;2022-11-15T14:06:44;9.47;;;7.23;;
18140;SDS011;9196;49.194;12.526;2022-11-15T14:11:59;9.30;;;8.30;;
18140;SDS011;9196;49.194;12.526;2022-11-15T14:14:29;10.60;;;9.03;;
18140;SDS011;9196;49.194;12.526;2022-11-15T14:16:57;9.67;;;8.77;;
18140;SDS011;9196;49.194;12.526;2022-11-15T14:19:35;8.83;;;8.03;;
18140;SDS011;9196;49.194;12.526;2022-11-15T14:22:14;9.53;;;8.53;;
18140;SDS011;9196;49.194;12.526;2022-11-15T14:24:47;8.70;;;7.87;;
18140;SDS011;9196;49.194;12.526;2022-11-15T14:27:40;11.33;;;8.77;;
18140;SDS011;9196;49.194;12.526;2022-11-15T14:30:13;10.37;;;9.27;;
18140;SDS011;9196;49.194;12.526;2022-11-15T14:32:43;9.67;;;8.17;;
18140;SDS011;9196;49.194;12.526;2022-11-15T14:35:12;10.40;;;9.30;;
18140;SDS011;9196;49.194;12.526;2022-11-15T14:37:41;12.77;;;9.00;;
18140;SDS011;9196;49.194;12.526;2022-11-15T14:40:11;10.17;;;8.73;;
18140;SDS011;9196;49.194;12.526;2022-11-15T14:42:39;11.13;;;9.97;;
18140;SDS011;9196;49.194;12.526;2022-11-15T14:45:08;11.90;;;9.80;;
18140;SDS011;9196;49.194;12.526;2022-11-15T14:47:40;11.50;;;9.40;;
18140;SDS011;9196;49.194;12.526;2022-11-15T14:50:10;13.13;;;10.80;;
18140;SDS011;9196;49.194;12.526;2022-11-15T14:52:39;17.40;;;12.77;;
18140;SDS011;9196;49.194;12.526;2022-11-15T14:55:12;13.70;;;11.50;;
18140;SDS011;9196;49.194;12.526;2022-11-15T14:57:43;15.63;;;10.80;;
18140;SDS011;9196;49.194;12.526;2022-11-15T15:00:10;14.30;;;11.87;;
18140;SDS011;9196;49.194;12.526;2022-11-15T15:02:40;11.97;;;9.87;;
18140;SDS011;9196;49.194;12.526;2022-11-15T15:05:13;16.00;;;12.00;;